sensor_id;sensor_type;location;lat;lon;timestamp;P1;durP1;ratioP1;P2;durP2;ratioP2
23745;SDS011;12053;48.878;9.632;2022-11-11T00:00:59;6.10;;;4.40;;
23745;SDS011;12053;48.878;9.632;2022-11-11T00:03:27;8.10;;;4.50;;
23745;SDS011;12053;48.878;9.632;2022-11-11T00:06:02;8.02;;;3.80;;
23745;SDS011;12053;48.878;9.632;2022-11-11T00:08:29;6.32;;;4.32;;
23745;SDS011;12053;48.878;9.632;2022-11-11T00:11:00;8.50;;;3.97;;
23745;SDS011;12053;48.878;9.632;2022-11-11T00:13:28;7.35;;;4.20;;
23745;SDS011;12053;48.878;9.632;2022-11-11T00:15:55;5.20;;;3.95;;
23745;SDS011;12053;48.878;9.632;2022-11-11T00:18:22;9.50;;;4.72;;
23745;SDS011;12053;48.878;9.632;2022-11-11T00:21:14;6.20;;;4.00;;
23745;SDS011;12053;48.878;9.632;2022-11-11T00:24:21;10.10;;;4.97;;
23745;SDS011;12053;48.878;9.632;2022-11-11T00:27:08;8.68;;;4.68;;
23745;SDS011;12053;48.878;9.632;2022-11-11T00:29:36;9.18;;;4.97;;
23745;SDS011;12053;48.878;9.632;2022-11-11T00:32:04;8.95;;;5.43;;
23745;SDS011;12053;48.878;9.632;2022-11-11T00:34:52;8.90;;;4.72;;
23745;SDS011;12053;48.878;9.632;2022-11-11T00:37:40;13.52;;;4.80;;
23745;SDS011;12053;48.878;9.632;2022-11-11T00:40:08;6.47;;;4.47;;
23745;SDS011;12053;48.878;9.632;2022-11-11T00:42:35;10.70;;;4.70;;
23745;SDS011;12053;48.878;9.632;2022-11-11T00:45:03;8.77;;;4.05;;
23745;SDS011;12053;48.878;9.632;2022-11-11T00:47:30;6.68;;;4.72;;
23745;SDS011;12053;48.878;9.632;2022-11-11T00:50:17;7.40;;;4.35;;
23745;SDS011;12053;48.878;9.632;2022-11-11T00:53:06;5.75;;;3.85;;
23745;SDS011;12053;48.878;9.632;2022-11-11T00:55:34;7.13;;;4.25;;
23745;SDS011;12053;48.878;9.632;2022-11-11T00:58:01;6.05;;;3.90;;
23745;SDS011;12053;48.878;9.632;2022-11-11T01:00:28;4.90;;;3.50;;
23745;SDS011;12053;48.878;9.632;2022-11-11T01:02:56;5.20;;;3.40;;
23745;SDS011;12053;48.878;9.632;2022-11-11T01:05:23;5.22;;;3.40;;
23745;SDS011;12053;48.878;9.632;2022-11-11T01:07:50;7.68;;;3.30;;
23745;SDS011;12053;48.878;9.632;2022-11-11T01:10:18;7.25;;;3.90;;
23745;SDS011;12053;48.878;9.632;2022-11-11T01:13:05;5.43;;;3.35;;
23745;SDS011;12053;48.878;9.632;2022-11-11T01:15:39;7.53;;;3.60;;
23745;SDS011;12053;48.878;9.632;2022-11-11T01:18:07;4.78;;;3.55;;
23745;SDS011;12053;48.878;9.632;2022-11-11T01:20:35;6.72;;;3.33;;
23745;SDS011;12053;48.878;9.632;2022-11-11T01:23:03;6.05;;;3.17;;
23745;SDS011;12053;48.878;9.632;2022-11-11T01:25:34;5.38;;;3.17;;
23745;SDS011;12053;48.878;9.632;2022-11-11T01:28:02;5.40;;;2.80;;
23745;SDS011;12053;48.878;9.632;2022-11-11T01:30:30;6.30;;;3.70;;
23745;SDS011;12053;48.878;9.632;2022-11-11T01:32:57;5.90;;;3.50;;
23745;SDS011;12053;48.878;9.632;2022-11-11T01:35:24;4.90;;;3.80;;
23745;SDS011;12053;48.878;9.632;2022-11-11T01:37:52;5.20;;;3.10;;
23745;SDS011;12053;48.878;9.632;2022-11-11T01:40:19;10.15;;;4.25;;
23745;SDS011;12053;48.878;9.632;2022-11-11T01:47:59;8.05;;;4.13;;
23745;SDS011;12053;48.878;9.632;2022-11-11T01:50:53;8.95;;;4.10;;
23745;SDS011;12053;48.878;9.632;2022-11-11T01:53:21;8.23;;;4.13;;
23745;SDS011;12053;48.878;9.632;2022-11-11T01:55:49;4.82;;;3.40;;
23745;SDS011;12053;48.878;9.632;2022-11-11T01:58:16;6.03;;;3.63;;
23745;SDS011;12053;48.878;9.632;2022-11-11T02:00:44;7.38;;;3.78;;
23745;SDS011;12053;48.878;9.632;2022-11-11T02:03:11;6.68;;;3.95;;
23745;SDS011;12053;48.878;9.632;2022-11-11T02:05:40;7.43;;;3.80;;
23745;SDS011;12053;48.878;9.632;2022-11-11T02:08:18;9.98;;;4.30;;
23745;SDS011;12053;48.878;9.632;2022-11-11T02:11:12;7.20;;;4.05;;
23745;SDS011;12053;48.878;9.632;2022-11-11T02:13:40;8.98;;;5.13;;
23745;SDS011;12053;48.878;9.632;2022-11-11T02:16:27;8.48;;;4.40;;
23745;SDS011;12053;48.878;9.632;2022-11-11T02:18:54;6.10;;;4.03;;
23745;SDS011;12053;48.878;9.632;2022-11-11T02:21:32;5.90;;;3.78;;
23745;SDS011;12053;48.878;9.632;2022-11-11T02:26:29;7.57;;;3.70;;
23745;SDS011;12053;48.878;9.632;2022-11-11T02:28:58;6.88;;;3.65;;
23745;SDS011;12053;48.878;9.632;2022-11-11T02:31:27;7.80;;;3.42;;
23745;SDS011;12053;48.878;9.632;2022-11-11T02:33:54;4.07;;;3.63;;
23745;SDS011;12053;48.878;9.632;2022-11-11T02:36:22;7.63;;;3.45;;
23745;SDS011;12053;48.878;9.632;2022-11-11T02:38:49;5.53;;;3.53;;
23745;SDS011;12053;48.878;9.632;2022-11-11T02:41:17;10.02;;;3.72;;
23745;SDS011;12053;48.878;9.632;2022-11-11T02:44:02;6.85;;;4.00;;
23745;SDS011;12053;48.878;9.632;2022-11-11T02:46:30;4.72;;;3.50;;
23745;SDS011;12053;48.878;9.632;2022-11-11T02:48:57;5.78;;;3.33;;
23745;SDS011;12053;48.878;9.632;2022-11-11T02:51:24;8.02;;;3.97;;
23745;SDS011;12053;48.878;9.632;2022-11-11T02:53:51;3.95;;;2.83;;
23745;SDS011;12053;48.878;9.632;2022-11-11T02:56:24;8.85;;;4.03;;
23745;SDS011;12053;48.878;9.632;2022-11-11T02:59:10;6.53;;;3.83;;
23745;SDS011;12053;48.878;9.632;2022-11-11T03:01:38;7.63;;;3.40;;
23745;SDS011;12053;48.878;9.632;2022-11-11T03:04:05;6.95;;;3.58;;
23745;SDS011;12053;48.878;9.632;2022-11-11T03:06:32;5.30;;;3.50;;
23745;SDS011;12053;48.878;9.632;2022-11-11T03:09:00;7.55;;;4.05;;
23745;SDS011;12053;48.878;9.632;2022-11-11T03:11:27;3.22;;;2.92;;
23745;SDS011;12053;48.878;9.632;2022-11-11T03:13:55;5.45;;;3.20;;
23745;SDS011;12053;48.878;9.632;2022-11-11T03:16:23;7.38;;;5.40;;
23745;SDS011;12053;48.878;9.632;2022-11-11T03:19:13;5.93;;;4.40;;
23745;SDS011;12053;48.878;9.632;2022-11-11T03:21:40;5.70;;;3.58;;
23745;SDS011;12053;48.878;9.632;2022-11-11T03:24:28;6.38;;;3.88;;
23745;SDS011;12053;48.878;9.632;2022-11-11T03:27:15;5.85;;;3.72;;
23745;SDS011;12053;48.878;9.632;2022-11-11T03:29:42;4.25;;;3.60;;
23745;SDS011;12053;48.878;9.632;2022-11-11T03:32:09;4.03;;;3.63;;
23745;SDS011;12053;48.878;9.632;2022-11-11T03:34:37;4.43;;;3.40;;
23745;SDS011;12053;48.878;9.632;2022-11-11T03:37:05;7.07;;;3.72;;
23745;SDS011;12053;48.878;9.632;2022-11-11T03:39:51;6.78;;;3.50;;
23745;SDS011;12053;48.878;9.632;2022-11-11T03:42:18;7.45;;;3.78;;
23745;SDS011;12053;48.878;9.632;2022-11-11T03:44:45;3.67;;;3.22;;
23745;SDS011;12053;48.878;9.632;2022-11-11T03:47:12;4.35;;;3.33;;
23745;SDS011;12053;48.878;9.632;2022-11-11T03:49:41;5.43;;;3.60;;
23745;SDS011;12053;48.878;9.632;2022-11-11T03:52:11;3.78;;;3.40;;
23745;SDS011;12053;48.878;9.632;2022-11-11T03:54:38;8.98;;;3.78;;
23745;SDS011;12053;48.878;9.632;2022-11-11T03:57:05;9.43;;;3.88;;
23745;SDS011;12053;48.878;9.632;2022-11-11T03:59:51;6.32;;;4.05;;
23745;SDS011;12053;48.878;9.632;2022-11-11T04:02:18;5.80;;;4.18;;
23745;SDS011;12053;48.878;9.632;2022-11-11T04:05:04;4.82;;;4.18;;
23745;SDS011;12053;48.878;9.632;2022-11-11T04:07:50;9.82;;;4.95;;
23745;SDS011;12053;48.878;9.632;2022-11-11T04:10:36;11.43;;;6.20;;
23745;SDS011;12053;48.878;9.632;2022-11-11T04:13:03;11.07;;;6.43;;
23745;SDS011;12053;48.878;9.632;2022-11-11T04:15:50;13.77;;;7.07;;
23745;SDS011;12053;48.878;9.632;2022-11-11T04:18:33;8.40;;;5.32;;
23745;SDS011;12053;48.878;9.632;2022-11-11T04:21:20;9.88;;;6.05;;
23745;SDS011;12053;48.878;9.632;2022-11-11T04:24:06;11.02;;;6.43;;
23745;SDS011;12053;48.878;9.632;2022-11-11T04:26:53;11.85;;;7.63;;
23745;SDS011;12053;48.878;9.632;2022-11-11T04:29:20;13.60;;;9.10;;
23745;SDS011;12053;48.878;9.632;2022-11-11T04:31:58;22.42;;;9.98;;
23745;SDS011;12053;48.878;9.632;2022-11-11T04:34:47;13.88;;;8.52;;
23745;SDS011;12053;48.878;9.632;2022-11-11T04:37:15;12.52;;;8.43;;
23745;SDS011;12053;48.878;9.632;2022-11-11T04:39:42;10.75;;;7.00;;
23745;SDS011;12053;48.878;9.632;2022-11-11T04:42:29;10.48;;;6.90;;
23745;SDS011;12053;48.878;9.632;2022-11-11T04:44:57;10.57;;;6.78;;
23745;SDS011;12053;48.878;9.632;2022-11-11T04:50:19;11.52;;;6.70;;
23745;SDS011;12053;48.878;9.632;2022-11-11T04:52:46;10.75;;;7.15;;
23745;SDS011;12053;48.878;9.632;2022-11-11T04:55:13;11.38;;;6.80;;
23745;SDS011;12053;48.878;9.632;2022-11-11T04:57:59;10.70;;;7.13;;
23745;SDS011;12053;48.878;9.632;2022-11-11T05:00:26;13.10;;;6.82;;
23745;SDS011;12053;48.878;9.632;2022-11-11T05:02:57;8.70;;;7.05;;
23745;SDS011;12053;48.878;9.632;2022-11-11T05:05:48;13.55;;;6.88;;
23745;SDS011;12053;48.878;9.632;2022-11-11T05:08:35;14.63;;;7.30;;
23745;SDS011;12053;48.878;9.632;2022-11-11T05:13:52;9.50;;;6.75;;
23745;SDS011;12053;48.878;9.632;2022-11-11T05:16:57;9.00;;;6.90;;
23745;SDS011;12053;48.878;9.632;2022-11-11T05:19:42;9.95;;;7.00;;
23745;SDS011;12053;48.878;9.632;2022-11-11T05:22:29;13.48;;;7.70;;
23745;SDS011;12053;48.878;9.632;2022-11-11T05:24:57;13.13;;;6.82;;
23745;SDS011;12053;48.878;9.632;2022-11-11T05:27:42;19.63;;;10.15;;
23745;SDS011;12053;48.878;9.632;2022-11-11T05:30:10;9.88;;;7.43;;
23745;SDS011;12053;48.878;9.632;2022-11-11T05:32:38;9.48;;;6.88;;
23745;SDS011;12053;48.878;9.632;2022-11-11T05:35:05;14.15;;;8.57;;
23745;SDS011;12053;48.878;9.632;2022-11-11T05:37:33;11.02;;;7.70;;
23745;SDS011;12053;48.878;9.632;2022-11-11T05:40:00;12.88;;;7.25;;
23745;SDS011;12053;48.878;9.632;2022-11-11T05:42:27;10.30;;;7.90;;
23745;SDS011;12053;48.878;9.632;2022-11-11T05:44:54;11.50;;;8.07;;
23745;SDS011;12053;48.878;9.632;2022-11-11T05:47:21;13.43;;;9.27;;
23745;SDS011;12053;48.878;9.632;2022-11-11T05:49:49;14.73;;;8.27;;
23745;SDS011;12053;48.878;9.632;2022-11-11T05:52:16;13.50;;;9.13;;
23745;SDS011;12053;48.878;9.632;2022-11-11T05:54:44;16.85;;;9.63;;
23745;SDS011;12053;48.878;9.632;2022-11-11T05:57:11;15.52;;;9.38;;
23745;SDS011;12053;48.878;9.632;2022-11-11T05:59:38;12.10;;;8.93;;
23745;SDS011;12053;48.878;9.632;2022-11-11T06:02:05;12.40;;;8.93;;
23745;SDS011;12053;48.878;9.632;2022-11-11T06:04:33;12.60;;;8.77;;
23745;SDS011;12053;48.878;9.632;2022-11-11T06:07:01;13.73;;;8.85;;
23745;SDS011;12053;48.878;9.632;2022-11-11T06:09:28;12.05;;;8.60;;
23745;SDS011;12053;48.878;9.632;2022-11-11T06:11:55;18.80;;;8.43;;
23745;SDS011;12053;48.878;9.632;2022-11-11T06:14:22;10.93;;;8.57;;
23745;SDS011;12053;48.878;9.632;2022-11-11T06:16:49;12.00;;;7.75;;
23745;SDS011;12053;48.878;9.632;2022-11-11T06:19:16;19.90;;;10.65;;
23745;SDS011;12053;48.878;9.632;2022-11-11T06:21:43;17.17;;;12.43;;
23745;SDS011;12053;48.878;9.632;2022-11-11T06:24:23;19.38;;;12.50;;
23745;SDS011;12053;48.878;9.632;2022-11-11T06:26:52;18.35;;;11.63;;
23745;SDS011;12053;48.878;9.632;2022-11-11T06:29:19;15.32;;;10.70;;
23745;SDS011;12053;48.878;9.632;2022-11-11T06:31:47;17.63;;;9.55;;
23745;SDS011;12053;48.878;9.632;2022-11-11T06:34:14;14.95;;;10.80;;
23745;SDS011;12053;48.878;9.632;2022-11-11T06:36:41;15.40;;;10.07;;
23745;SDS011;12053;48.878;9.632;2022-11-11T06:39:09;19.30;;;11.38;;
23745;SDS011;12053;48.878;9.632;2022-11-11T06:41:36;19.95;;;11.95;;
23745;SDS011;12053;48.878;9.632;2022-11-11T06:44:03;21.50;;;13.48;;
23745;SDS011;12053;48.878;9.632;2022-11-11T06:46:30;20.80;;;12.82;;
23745;SDS011;12053;48.878;9.632;2022-11-11T06:48:57;23.30;;;13.48;;
23745;SDS011;12053;48.878;9.632;2022-11-11T06:51:24;17.88;;;12.82;;
23745;SDS011;12053;48.878;9.632;2022-11-11T06:53:51;18.02;;;11.82;;
23745;SDS011;12053;48.878;9.632;2022-11-11T06:56:18;17.80;;;11.63;;
23745;SDS011;12053;48.878;9.632;2022-11-11T06:58:46;18.27;;;10.90;;
23745;SDS011;12053;48.878;9.632;2022-11-11T07:01:13;17.50;;;10.80;;
23745;SDS011;12053;48.878;9.632;2022-11-11T07:03:40;19.65;;;10.88;;
23745;SDS011;12053;48.878;9.632;2022-11-11T07:06:07;15.75;;;11.00;;
23745;SDS011;12053;48.878;9.632;2022-11-11T07:08:34;15.52;;;11.32;;
23745;SDS011;12053;48.878;9.632;2022-11-11T07:11:01;16.58;;;11.73;;
23745;SDS011;12053;48.878;9.632;2022-11-11T07:13:40;21.17;;;12.52;;
23745;SDS011;12053;48.878;9.632;2022-11-11T07:16:07;19.23;;;12.15;;
23745;SDS011;12053;48.878;9.632;2022-11-11T07:18:36;19.70;;;11.02;;
23745;SDS011;12053;48.878;9.632;2022-11-11T07:21:03;16.58;;;12.05;;
23745;SDS011;12053;48.878;9.632;2022-11-11T07:23:30;14.60;;;10.30;;
23745;SDS011;12053;48.878;9.632;2022-11-11T07:25:58;15.20;;;11.77;;
23745;SDS011;12053;48.878;9.632;2022-11-11T07:28:25;16.23;;;12.07;;
23745;SDS011;12053;48.878;9.632;2022-11-11T07:30:52;16.98;;;11.93;;
23745;SDS011;12053;48.878;9.632;2022-11-11T07:33:19;16.75;;;11.35;;
23745;SDS011;12053;48.878;9.632;2022-11-11T07:35:49;17.33;;;11.02;;
23745;SDS011;12053;48.878;9.632;2022-11-11T07:38:17;17.13;;;11.23;;
23745;SDS011;12053;48.878;9.632;2022-11-11T07:40:44;16.27;;;10.88;;
23745;SDS011;12053;48.878;9.632;2022-11-11T07:43:11;16.33;;;11.80;;
23745;SDS011;12053;48.878;9.632;2022-11-11T07:45:38;17.48;;;11.32;;
23745;SDS011;12053;48.878;9.632;2022-11-11T07:48:05;17.73;;;11.57;;
23745;SDS011;12053;48.878;9.632;2022-11-11T07:50:33;20.40;;;11.20;;
23745;SDS011;12053;48.878;9.632;2022-11-11T07:53:00;19.38;;;12.23;;
23745;SDS011;12053;48.878;9.632;2022-11-11T07:55:27;21.38;;;11.85;;
23745;SDS011;12053;48.878;9.632;2022-11-11T07:57:54;17.90;;;12.63;;
23745;SDS011;12053;48.878;9.632;2022-11-11T08:00:21;23.20;;;12.85;;
23745;SDS011;12053;48.878;9.632;2022-11-11T08:02:49;12.63;;;9.63;;
23745;SDS011;12053;48.878;9.632;2022-11-11T08:05:20;14.52;;;8.40;;
23745;SDS011;12053;48.878;9.632;2022-11-11T08:07:47;12.63;;;7.65;;
23745;SDS011;12053;48.878;9.632;2022-11-11T08:10:14;11.68;;;7.20;;
23745;SDS011;12053;48.878;9.632;2022-11-11T08:12:53;11.13;;;7.78;;
23745;SDS011;12053;48.878;9.632;2022-11-11T08:15:48;11.77;;;7.43;;
23745;SDS011;12053;48.878;9.632;2022-11-11T08:18:15;8.70;;;7.65;;
23745;SDS011;12053;48.878;9.632;2022-11-11T08:20:43;11.95;;;8.50;;
23745;SDS011;12053;48.878;9.632;2022-11-11T08:23:15;9.63;;;8.23;;
23745;SDS011;12053;48.878;9.632;2022-11-11T08:26:07;11.77;;;7.78;;
23745;SDS011;12053;48.878;9.632;2022-11-11T08:28:34;13.90;;;9.18;;
23745;SDS011;12053;48.878;9.632;2022-11-11T08:31:01;11.60;;;9.25;;
23745;SDS011;12053;48.878;9.632;2022-11-11T08:33:29;16.25;;;10.70;;
23745;SDS011;12053;48.878;9.632;2022-11-11T08:36:09;14.63;;;9.60;;
23745;SDS011;12053;48.878;9.632;2022-11-11T08:38:44;15.05;;;9.05;;
23745;SDS011;12053;48.878;9.632;2022-11-11T08:41:11;11.05;;;7.70;;
23745;SDS011;12053;48.878;9.632;2022-11-11T08:43:38;14.23;;;7.22;;
23745;SDS011;12053;48.878;9.632;2022-11-11T08:46:06;13.38;;;7.75;;
23745;SDS011;12053;48.878;9.632;2022-11-11T08:48:33;21.30;;;9.25;;
23745;SDS011;12053;48.878;9.632;2022-11-11T08:51:00;11.60;;;7.00;;
23745;SDS011;12053;48.878;9.632;2022-11-11T08:53:27;9.77;;;6.22;;
23745;SDS011;12053;48.878;9.632;2022-11-11T08:55:55;8.93;;;5.60;;
23745;SDS011;12053;48.878;9.632;2022-11-11T08:58:22;9.75;;;5.85;;
23745;SDS011;12053;48.878;9.632;2022-11-11T09:00:49;8.98;;;5.90;;
23745;SDS011;12053;48.878;9.632;2022-11-11T09:03:16;8.70;;;5.30;;
23745;SDS011;12053;48.878;9.632;2022-11-11T09:05:43;10.25;;;5.28;;
23745;SDS011;12053;48.878;9.632;2022-11-11T09:08:12;7.10;;;5.10;;
23745;SDS011;12053;48.878;9.632;2022-11-11T09:10:39;6.28;;;4.05;;
23745;SDS011;12053;48.878;9.632;2022-11-11T09:13:07;7.70;;;4.97;;
23745;SDS011;12053;48.878;9.632;2022-11-11T09:15:34;5.18;;;3.83;;
23745;SDS011;12053;48.878;9.632;2022-11-11T09:18:01;9.90;;;4.30;;
23745;SDS011;12053;48.878;9.632;2022-11-11T09:20:28;7.60;;;4.20;;
23745;SDS011;12053;48.878;9.632;2022-11-11T09:22:55;6.90;;;3.05;;
23745;SDS011;12053;48.878;9.632;2022-11-11T09:25:22;4.97;;;3.30;;
23745;SDS011;12053;48.878;9.632;2022-11-11T09:27:57;5.00;;;3.40;;
23745;SDS011;12053;48.878;9.632;2022-11-11T09:30:25;4.90;;;3.90;;
23745;SDS011;12053;48.878;9.632;2022-11-11T09:32:52;4.53;;;3.40;;
23745;SDS011;12053;48.878;9.632;2022-11-11T09:35:19;6.00;;;3.25;;
23745;SDS011;12053;48.878;9.632;2022-11-11T09:37:54;3.92;;;3.00;;
23745;SDS011;12053;48.878;9.632;2022-11-11T09:40:22;7.85;;;2.95;;
23745;SDS011;12053;48.878;9.632;2022-11-11T09:42:58;4.72;;;2.67;;
23745;SDS011;12053;48.878;9.632;2022-11-11T09:50:36;3.75;;;2.75;;
23745;SDS011;12053;48.878;9.632;2022-11-11T10:00:56;4.18;;;2.60;;
23745;SDS011;12053;48.878;9.632;2022-11-11T10:03:25;5.32;;;2.40;;
23745;SDS011;12053;48.878;9.632;2022-11-11T10:06:09;5.65;;;2.08;;
23745;SDS011;12053;48.878;9.632;2022-11-11T10:14:00;3.92;;;2.10;;
23745;SDS011;12053;48.878;9.632;2022-11-11T10:16:34;4.88;;;2.28;;
23745;SDS011;12053;48.878;9.632;2022-11-11T10:21:52;6.03;;;2.40;;
23745;SDS011;12053;48.878;9.632;2022-11-11T10:24:40;2.83;;;1.73;;
23745;SDS011;12053;48.878;9.632;2022-11-11T10:27:16;3.63;;;1.77;;
23745;SDS011;12053;48.878;9.632;2022-11-11T10:29:44;3.47;;;2.08;;
23745;SDS011;12053;48.878;9.632;2022-11-11T10:32:15;3.05;;;1.80;;
23745;SDS011;12053;48.878;9.632;2022-11-11T10:34:44;4.22;;;1.83;;
23745;SDS011;12053;48.878;9.632;2022-11-11T10:37:18;4.38;;;1.80;;
23745;SDS011;12053;48.878;9.632;2022-11-11T10:42:17;2.85;;;1.70;;
23745;SDS011;12053;48.878;9.632;2022-11-11T10:44:44;4.03;;;1.65;;
23745;SDS011;12053;48.878;9.632;2022-11-11T10:49:50;3.22;;;1.73;;
23745;SDS011;12053;48.878;9.632;2022-11-11T10:52:21;3.20;;;1.80;;
23745;SDS011;12053;48.878;9.632;2022-11-11T10:55:01;3.22;;;1.73;;
23745;SDS011;12053;48.878;9.632;2022-11-11T10:57:41;2.92;;;1.60;;
23745;SDS011;12053;48.878;9.632;2022-11-11T11:00:12;3.97;;;2.25;;
23745;SDS011;12053;48.878;9.632;2022-11-11T11:05:18;3.03;;;2.05;;
23745;SDS011;12053;48.878;9.632;2022-11-11T11:07:50;4.30;;;2.53;;
23745;SDS011;12053;48.878;9.632;2022-11-11T11:10:20;1.73;;;1.60;;
23745;SDS011;12053;48.878;9.632;2022-11-11T11:15:36;3.33;;;2.15;;
23745;SDS011;12053;48.878;9.632;2022-11-11T11:18:09;3.40;;;2.08;;
23745;SDS011;12053;48.878;9.632;2022-11-11T11:20:37;2.83;;;1.80;;
23745;SDS011;12053;48.878;9.632;2022-11-11T11:23:05;2.75;;;1.58;;
23745;SDS011;12053;48.878;9.632;2022-11-11T11:25:32;2.13;;;1.60;;
23745;SDS011;12053;48.878;9.632;2022-11-11T11:28:09;3.38;;;1.60;;
23745;SDS011;12053;48.878;9.632;2022-11-11T11:30:37;2.50;;;1.63;;
23745;SDS011;12053;48.878;9.632;2022-11-11T11:33:05;6.70;;;2.15;;
23745;SDS011;12053;48.878;9.632;2022-11-11T11:35:36;4.97;;;1.70;;
23745;SDS011;12053;48.878;9.632;2022-11-11T11:38:05;3.90;;;1.83;;
23745;SDS011;12053;48.878;9.632;2022-11-11T11:40:49;3.33;;;1.73;;
23745;SDS011;12053;48.878;9.632;2022-11-11T11:43:35;2.53;;;1.50;;
23745;SDS011;12053;48.878;9.632;2022-11-11T11:46:13;4.10;;;1.88;;
23745;SDS011;12053;48.878;9.632;2022-11-11T11:56:35;3.13;;;1.50;;
23745;SDS011;12053;48.878;9.632;2022-11-11T12:07:10;2.78;;;1.45;;
23745;SDS011;12053;48.878;9.632;2022-11-11T12:12:28;3.57;;;1.60;;
23745;SDS011;12053;48.878;9.632;2022-11-11T12:20:17;2.08;;;1.15;;
23745;SDS011;12053;48.878;9.632;2022-11-11T12:22:52;1.98;;;1.25;;
23745;SDS011;12053;48.878;9.632;2022-11-11T12:25:28;2.42;;;1.30;;
23745;SDS011;12053;48.878;9.632;2022-11-11T12:27:59;2.10;;;1.33;;
23745;SDS011;12053;48.878;9.632;2022-11-11T12:30:28;1.42;;;1.10;;
23745;SDS011;12053;48.878;9.632;2022-11-11T12:33:10;2.30;;;1.17;;
23745;SDS011;12053;48.878;9.632;2022-11-11T12:35:59;1.95;;;1.02;;
23745;SDS011;12053;48.878;9.632;2022-11-11T12:46:20;2.45;;;1.23;;
23745;SDS011;12053;48.878;9.632;2022-11-11T12:51:36;4.55;;;1.70;;
23745;SDS011;12053;48.878;9.632;2022-11-11T13:04:47;3.33;;;1.50;;
23745;SDS011;12053;48.878;9.632;2022-11-11T13:10:04;5.22;;;1.75;;
23745;SDS011;12053;48.878;9.632;2022-11-11T13:12:37;2.72;;;1.50;;
23745;SDS011;12053;48.878;9.632;2022-11-11T13:15:17;2.70;;;1.80;;
23745;SDS011;12053;48.878;9.632;2022-11-11T13:17:45;2.70;;;1.73;;
23745;SDS011;12053;48.878;9.632;2022-11-11T13:22:58;2.42;;;1.65;;
23745;SDS011;12053;48.878;9.632;2022-11-11T13:25:27;1.55;;;1.40;;
23745;SDS011;12053;48.878;9.632;2022-11-11T13:27:58;2.78;;;1.50;;
23745;SDS011;12053;48.878;9.632;2022-11-11T13:30:44;2.60;;;1.37;;
23745;SDS011;12053;48.878;9.632;2022-11-11T13:33:12;2.78;;;1.70;;
23745;SDS011;12053;48.878;9.632;2022-11-11T13:35:52;2.33;;;1.55;;
23745;SDS011;12053;48.878;9.632;2022-11-11T13:41:03;2.30;;;1.70;;
23745;SDS011;12053;48.878;9.632;2022-11-11T13:43:35;1.50;;;1.30;;
23745;SDS011;12053;48.878;9.632;2022-11-11T13:46:06;3.58;;;1.58;;
23745;SDS011;12053;48.878;9.632;2022-11-11T13:48:42;3.35;;;1.80;;
23745;SDS011;12053;48.878;9.632;2022-11-11T13:51:26;3.33;;;2.05;;
23745;SDS011;12053;48.878;9.632;2022-11-11T13:53:56;2.65;;;1.58;;
23745;SDS011;12053;48.878;9.632;2022-11-11T13:56:34;4.43;;;2.80;;
23745;SDS011;12053;48.878;9.632;2022-11-11T13:59:03;5.38;;;1.92;;
23745;SDS011;12053;48.878;9.632;2022-11-11T14:01:32;3.55;;;1.92;;
23745;SDS011;12053;48.878;9.632;2022-11-11T14:04:07;4.57;;;2.25;;
23745;SDS011;12053;48.878;9.632;2022-11-11T14:06:36;4.40;;;3.08;;
23745;SDS011;12053;48.878;9.632;2022-11-11T14:09:03;6.80;;;2.10;;
23745;SDS011;12053;48.878;9.632;2022-11-11T14:11:31;4.63;;;2.25;;
23745;SDS011;12053;48.878;9.632;2022-11-11T14:29:50;7.10;;;3.03;;
23745;SDS011;12053;48.878;9.632;2022-11-11T14:37:51;7.93;;;4.57;;
23745;SDS011;12053;48.878;9.632;2022-11-11T14:40:24;7.30;;;4.90;;
23745;SDS011;12053;48.878;9.632;2022-11-11T14:42:52;6.43;;;4.65;;
23745;SDS011;12053;48.878;9.632;2022-11-11T14:47:50;8.05;;;5.03;;
23745;SDS011;12053;48.878;9.632;2022-11-11T14:52:54;4.72;;;3.13;;
23745;SDS011;12053;48.878;9.632;2022-11-11T14:55:24;8.63;;;4.20;;
23745;SDS011;12053;48.878;9.632;2022-11-11T15:08:16;3.10;;;2.25;;
23745;SDS011;12053;48.878;9.632;2022-11-11T15:10:54;3.40;;;1.58;;
23745;SDS011;12053;48.878;9.632;2022-11-11T15:21:12;6.80;;;3.90;;
23745;SDS011;12053;48.878;9.632;2022-11-11T15:23:56;5.47;;;3.90;;
23745;SDS011;12053;48.878;9.632;2022-11-11T15:29:55;6.63;;;4.50;;
23745;SDS011;12053;48.878;9.632;2022-11-11T15:32:15;10.68;;;6.40;;
23745;SDS011;12053;48.878;9.632;2022-11-11T15:37:31;12.45;;;7.25;;
23745;SDS011;12053;48.878;9.632;2022-11-11T15:39:58;10.43;;;7.10;;
23745;SDS011;12053;48.878;9.632;2022-11-11T15:42:30;10.05;;;7.18;;
23745;SDS011;12053;48.878;9.632;2022-11-11T15:44:58;7.82;;;6.00;;
23745;SDS011;12053;48.878;9.632;2022-11-11T15:47:27;8.30;;;5.03;;
23745;SDS011;12053;48.878;9.632;2022-11-11T15:49:59;8.00;;;6.10;;
23745;SDS011;12053;48.878;9.632;2022-11-11T15:52:30;19.73;;;14.00;;
23745;SDS011;12053;48.878;9.632;2022-11-11T15:54:58;11.27;;;7.32;;
23745;SDS011;12053;48.878;9.632;2022-11-11T15:59:57;6.97;;;5.15;;
23745;SDS011;12053;48.878;9.632;2022-11-11T16:02:28;6.63;;;4.03;;
23745;SDS011;12053;48.878;9.632;2022-11-11T16:05:42;6.63;;;4.53;;
23745;SDS011;12053;48.878;9.632;2022-11-11T16:07:43;11.43;;;8.00;;
23745;SDS011;12053;48.878;9.632;2022-11-11T16:10:15;9.35;;;6.75;;
23745;SDS011;12053;48.878;9.632;2022-11-11T16:12:44;8.80;;;6.50;;
23745;SDS011;12053;48.878;9.632;2022-11-11T16:15:18;9.10;;;7.57;;
23745;SDS011;12053;48.878;9.632;2022-11-11T16:17:45;15.13;;;10.50;;
23745;SDS011;12053;48.878;9.632;2022-11-11T16:20:13;19.10;;;13.05;;
23745;SDS011;12053;48.878;9.632;2022-11-11T16:22:41;13.75;;;10.60;;
23745;SDS011;12053;48.878;9.632;2022-11-11T16:25:18;19.30;;;9.77;;
23745;SDS011;12053;48.878;9.632;2022-11-11T16:27:46;12.18;;;7.93;;
23745;SDS011;12053;48.878;9.632;2022-11-11T16:30:33;10.20;;;7.82;;
23745;SDS011;12053;48.878;9.632;2022-11-11T16:33:00;18.70;;;12.80;;
23745;SDS011;12053;48.878;9.632;2022-11-11T16:35:35;19.20;;;13.20;;
23745;SDS011;12053;48.878;9.632;2022-11-11T16:38:02;16.75;;;12.95;;
23745;SDS011;12053;48.878;9.632;2022-11-11T16:48:34;11.13;;;7.97;;
23745;SDS011;12053;48.878;9.632;2022-11-11T16:51:08;22.25;;;14.95;;
23745;SDS011;12053;48.878;9.632;2022-11-11T16:53:39;18.23;;;13.02;;
23745;SDS011;12053;48.878;9.632;2022-11-11T16:56:13;18.75;;;14.05;;
23745;SDS011;12053;48.878;9.632;2022-11-11T16:58:43;32.30;;;17.20;;
23745;SDS011;12053;48.878;9.632;2022-11-11T17:01:19;29.10;;;18.48;;
23745;SDS011;12053;48.878;9.632;2022-11-11T17:03:53;22.98;;;16.17;;
23745;SDS011;12053;48.878;9.632;2022-11-11T17:06:43;18.55;;;11.85;;
23745;SDS011;12053;48.878;9.632;2022-11-11T17:11:53;12.25;;;6.75;;
23745;SDS011;12053;48.878;9.632;2022-11-11T17:14:21;18.25;;;8.63;;
23745;SDS011;12053;48.878;9.632;2022-11-11T17:16:48;22.10;;;14.75;;
23745;SDS011;12053;48.878;9.632;2022-11-11T17:19:15;27.58;;;16.77;;
23745;SDS011;12053;48.878;9.632;2022-11-11T17:21:42;15.40;;;9.77;;
23745;SDS011;12053;48.878;9.632;2022-11-11T17:24:10;15.05;;;9.15;;
23745;SDS011;12053;48.878;9.632;2022-11-11T17:26:39;18.50;;;11.18;;
23745;SDS011;12053;48.878;9.632;2022-11-11T17:29:07;15.23;;;10.35;;
23745;SDS011;12053;48.878;9.632;2022-11-11T17:31:36;14.10;;;9.43;;
23745;SDS011;12053;48.878;9.632;2022-11-11T17:34:04;11.82;;;8.60;;
23745;SDS011;12053;48.878;9.632;2022-11-11T17:36:32;17.67;;;9.75;;
23745;SDS011;12053;48.878;9.632;2022-11-11T17:38:59;19.70;;;10.40;;
23745;SDS011;12053;48.878;9.632;2022-11-11T17:41:26;15.38;;;11.13;;
23745;SDS011;12053;48.878;9.632;2022-11-11T17:43:54;13.90;;;7.90;;
23745;SDS011;12053;48.878;9.632;2022-11-11T17:46:21;11.00;;;6.97;;
23745;SDS011;12053;48.878;9.632;2022-11-11T17:48:51;10.00;;;6.55;;